sensor_id;sensor_type;location;lat;lon;timestamp;pressure;altitude;pressure_sealevel;temperature;humidity
57885;BME280;43703;51.060;-0.086;2024-02-23T00:00:28;97374.52;;;3.31;100.00
57885;BME280;43703;51.060;-0.086;2024-02-23T00:02:53;97371.13;;;3.76;100.00
57885;BME280;43703;51.060;-0.086;2024-02-23T00:05:18;97374.80;;;3.91;100.00
57885;BME280;43703;51.060;-0.086;2024-02-23T00:07:43;97366.12;;;3.85;100.00
57885;BME280;43703;51.060;-0.086;2024-02-23T00:10:09;97365.23;;;3.82;100.00
57885;BME280;43703;51.060;-0.086;2024-02-23T00:12:34;97366.61;;;3.80;100.00
57885;BME280;43703;51.060;-0.086;2024-02-23T00:14:59;97369.61;;;3.70;100.00
57885;BME280;43703;51.060;-0.086;2024-02-23T00:17:24;97364.23;;;3.80;100.00
57885;BME280;43703;51.060;-0.086;2024-02-23T00:19:49;97360.44;;;3.71;100.00
57885;BME280;43703;51.060;-0.086;2024-02-23T00:22:15;97358.23;;;3.84;100.00
57885;BME280;43703;51.060;-0.086;2024-02-23T00:24:40;97353.24;;;4.25;99.96
57885;BME280;43703;51.060;-0.086;2024-02-23T00:27:05;97351.13;;;4.05;100.00
57885;BME280;43703;51.060;-0.086;2024-02-23T00:29:30;97348.87;;;4.05;100.00
57885;BME280;43703;51.060;-0.086;2024-02-23T00:31:55;97351.72;;;4.20;100.00
57885;BME280;43703;51.060;-0.086;2024-02-23T00:34:20;97351.13;;;4.20;100.00
57885;BME280;43703;51.060;-0.086;2024-02-23T00:36:45;97338.48;;;4.12;100.00
57885;BME280;43703;51.060;-0.086;2024-02-23T00:39:10;97327.11;;;3.96;100.00
57885;BME280;43703;51.060;-0.086;2024-02-23T00:41:35;97325.74;;;3.91;100.00
57885;BME280;43703;51.060;-0.086;2024-02-23T00:44:00;97316.37;;;3.51;100.00
57885;BME280;43703;51.060;-0.086;2024-02-23T00:46:25;97314.06;;;4.14;100.00
57885;BME280;43703;51.060;-0.086;2024-02-23T00:48:50;97309.15;;;3.90;100.00
57885;BME280;43703;51.060;-0.086;2024-02-23T00:51:16;97304.59;;;4.18;100.00
57885;BME280;43703;51.060;-0.086;2024-02-23T00:53:40;97304.89;;;3.74;100.00
57885;BME280;43703;51.060;-0.086;2024-02-23T00:56:06;97302.32;;;4.26;100.00
57885;BME280;43703;51.060;-0.086;2024-02-23T00:58:35;97302.53;;;4.18;100.00
57885;BME280;43703;51.060;-0.086;2024-02-23T01:00:56;97300.14;;;3.92;100.00
57885;BME280;43703;51.060;-0.086;2024-02-23T01:03:21;97293.45;;;4.39;100.00
57885;BME280;43703;51.060;-0.086;2024-02-23T01:05:46;97289.71;;;4.16;100.00
57885;BME280;43703;51.060;-0.086;2024-02-23T01:08:11;97293.52;;;4.03;100.00
57885;BME280;43703;51.060;-0.086;2024-02-23T01:10:39;97300.78;;;4.23;100.00
57885;BME280;43703;51.060;-0.086;2024-02-23T01:13:02;97304.06;;;4.07;99.68
57885;BME280;43703;51.060;-0.086;2024-02-23T01:15:27;97301.00;;;4.10;100.00
57885;BME280;43703;51.060;-0.086;2024-02-23T01:17:52;97302.37;;;4.39;100.00
57885;BME280;43703;51.060;-0.086;2024-02-23T01:20:17;97304.21;;;4.02;100.00
57885;BME280;43703;51.060;-0.086;2024-02-23T01:22:42;97298.62;;;4.16;100.00
57885;BME280;43703;51.060;-0.086;2024-02-23T01:25:07;97292.13;;;4.33;100.00
57885;BME280;43703;51.060;-0.086;2024-02-23T01:27:32;97287.90;;;4.05;100.00
57885;BME280;43703;51.060;-0.086;2024-02-23T01:29:57;97277.10;;;4.13;100.00
57885;BME280;43703;51.060;-0.086;2024-02-23T01:32:22;97273.50;;;3.93;100.00
57885;BME280;43703;51.060;-0.086;2024-02-23T01:34:47;97280.86;;;4.37;100.00
57885;BME280;43703;51.060;-0.086;2024-02-23T01:37:12;97277.44;;;4.09;100.00
57885;BME280;43703;51.060;-0.086;2024-02-23T01:39:37;97265.98;;;4.46;100.00
57885;BME280;43703;51.060;-0.086;2024-02-23T01:42:03;97262.23;;;4.58;100.00
57885;BME280;43703;51.060;-0.086;2024-02-23T01:44:28;97259.15;;;4.72;100.00
57885;BME280;43703;51.060;-0.086;2024-02-23T01:46:53;97258.44;;;4.40;100.00
57885;BME280;43703;51.060;-0.086;2024-02-23T01:49:18;97253.48;;;4.92;99.62
57885;BME280;43703;51.060;-0.086;2024-02-23T01:51:43;97254.05;;;5.16;100.00
57885;BME280;43703;51.060;-0.086;2024-02-23T01:54:09;97256.85;;;4.77;100.00
57885;BME280;43703;51.060;-0.086;2024-02-23T01:56:33;97257.83;;;5.19;100.00
57885;BME280;43703;51.060;-0.086;2024-02-23T01:58:59;97252.60;;;5.12;100.00
57885;BME280;43703;51.060;-0.086;2024-02-23T02:01:23;97250.68;;;5.11;100.00
57885;BME280;43703;51.060;-0.086;2024-02-23T02:03:48;97251.38;;;5.33;100.00
57885;BME280;43703;51.060;-0.086;2024-02-23T02:06:14;97236.50;;;5.56;100.00
57885;BME280;43703;51.060;-0.086;2024-02-23T02:08:40;97229.16;;;5.27;100.00
57885;BME280;43703;51.060;-0.086;2024-02-23T02:11:04;97227.43;;;5.22;100.00
57885;BME280;43703;51.060;-0.086;2024-02-23T02:13:30;97222.30;;;5.26;100.00
57885;BME280;43703;51.060;-0.086;2024-02-23T02:15:55;97226.94;;;4.84;100.00
57885;BME280;43703;51.060;-0.086;2024-02-23T02:18:19;97209.16;;;4.89;97.79
57885;BME280;43703;51.060;-0.086;2024-02-23T02:20:50;97197.02;;;4.73;100.00
57885;BME280;43703;51.060;-0.086;2024-02-23T02:23:09;97191.80;;;4.99;100.00
57885;BME280;43703;51.060;-0.086;2024-02-23T02:25:35;97182.20;;;4.93;100.00
57885;BME280;43703;51.060;-0.086;2024-02-23T02:27:59;97176.31;;;4.83;100.00
57885;BME280;43703;51.060;-0.086;2024-02-23T02:30:24;97170.82;;;4.72;100.00
57885;BME280;43703;51.060;-0.086;2024-02-23T02:32:49;97172.54;;;5.32;100.00
57885;BME280;43703;51.060;-0.086;2024-02-23T02:35:14;97175.55;;;5.18;100.00
57885;BME280;43703;51.060;-0.086;2024-02-23T02:37:39;97174.59;;;4.99;100.00
57885;BME280;43703;51.060;-0.086;2024-02-23T02:40:06;97164.59;;;5.24;100.00
57885;BME280;43703;51.060;-0.086;2024-02-23T02:42:30;97172.69;;;5.51;100.00
57885;BME280;43703;51.060;-0.086;2024-02-23T02:44:55;97181.18;;;5.46;100.00
57885;BME280;43703;51.060;-0.086;2024-02-23T02:47:20;97183.03;;;5.05;100.00
57885;BME280;43703;51.060;-0.086;2024-02-23T02:49:45;97179.71;;;4.80;100.00
57885;BME280;43703;51.060;-0.086;2024-02-23T02:52:10;97167.63;;;4.82;100.00
57885;BME280;43703;51.060;-0.086;2024-02-23T02:54:35;97164.86;;;4.46;100.00
57885;BME280;43703;51.060;-0.086;2024-02-23T02:57:00;97160.19;;;4.26;100.00
57885;BME280;43703;51.060;-0.086;2024-02-23T02:59:25;97155.82;;;4.84;100.00
57885;BME280;43703;51.060;-0.086;2024-02-23T03:01:50;97148.98;;;4.79;100.00
57885;BME280;43703;51.060;-0.086;2024-02-23T03:04:16;97145.43;;;4.80;100.00
57885;BME280;43703;51.060;-0.086;2024-02-23T03:06:40;97143.04;;;4.73;100.00
57885;BME280;43703;51.060;-0.086;2024-02-23T03:09:05;97141.96;;;4.77;100.00
57885;BME280;43703;51.060;-0.086;2024-02-23T03:11:30;97120.99;;;4.87;100.00
57885;BME280;43703;51.060;-0.086;2024-02-23T03:13:55;97108.93;;;4.60;100.00
57885;BME280;43703;51.060;-0.086;2024-02-23T03:16:21;97109.78;;;4.66;100.00
57885;BME280;43703;51.060;-0.086;2024-02-23T03:18:45;97110.99;;;4.85;100.00
57885;BME280;43703;51.060;-0.086;2024-02-23T03:21:10;97114.60;;;4.61;100.00
57885;BME280;43703;51.060;-0.086;2024-02-23T03:23:35;97109.23;;;4.55;100.00
57885;BME280;43703;51.060;-0.086;2024-02-23T03:26:00;97107.40;;;4.39;100.00
57885;BME280;43703;51.060;-0.086;2024-02-23T03:28:25;97111.12;;;4.34;100.00
57885;BME280;43703;51.060;-0.086;2024-02-23T03:30:50;97108.44;;;4.27;100.00
57885;BME280;43703;51.060;-0.086;2024-02-23T03:33:15;97106.70;;;4.70;100.00
57885;BME280;43703;51.060;-0.086;2024-02-23T03:35:40;97097.92;;;4.16;100.00
57885;BME280;43703;51.060;-0.086;2024-02-23T03:38:05;97098.08;;;4.35;100.00
57885;BME280;43703;51.060;-0.086;2024-02-23T03:40:30;97093.57;;;4.41;100.00
57885;BME280;43703;51.060;-0.086;2024-02-23T03:42:55;97092.59;;;4.30;100.00
57885;BME280;43703;51.060;-0.086;2024-02-23T03:45:20;97090.88;;;4.36;100.00
57885;BME280;43703;51.060;-0.086;2024-02-23T03:47:46;97095.83;;;4.49;100.00
57885;BME280;43703;51.060;-0.086;2024-02-23T03:50:11;97088.35;;;4.61;100.00
57885;BME280;43703;51.060;-0.086;2024-02-23T03:52:36;97086.59;;;4.82;100.00
57885;BME280;43703;51.060;-0.086;2024-02-23T03:55:01;97085.67;;;4.96;100.00
57885;BME280;43703;51.060;-0.086;2024-02-23T03:57:26;97082.40;;;4.84;100.00
57885;BME280;43703;51.060;-0.086;2024-02-23T03:59:52;97081.38;;;5.15;100.00
57885;BME280;43703;51.060;-0.086;2024-02-23T04:02:16;97082.43;;;5.06;100.00
57885;BME280;43703;51.060;-0.086;2024-02-23T04:04:41;97086.92;;;5.34;100.00
57885;BME280;43703;51.060;-0.086;2024-02-23T04:07:06;97084.90;;;5.38;100.00
57885;BME280;43703;51.060;-0.086;2024-02-23T04:09:31;97086.40;;;5.03;100.00
57885;BME280;43703;51.060;-0.086;2024-02-23T04:11:57;97089.67;;;5.30;100.00
57885;BME280;43703;51.060;-0.086;2024-02-23T04:14:22;97089.19;;;4.79;100.00
57885;BME280;43703;51.060;-0.086;2024-02-23T04:16:47;97095.37;;;5.18;100.00
57885;BME280;43703;51.060;-0.086;2024-02-23T04:19:13;97095.77;;;5.24;100.00
57885;BME280;43703;51.060;-0.086;2024-02-23T04:21:38;97093.92;;;5.27;100.00
57885;BME280;43703;51.060;-0.086;2024-02-23T04:24:03;97095.53;;;5.27;100.00
57885;BME280;43703;51.060;-0.086;2024-02-23T04:26:28;97100.58;;;5.32;100.00
57885;BME280;43703;51.060;-0.086;2024-02-23T04:28:53;97104.59;;;5.24;100.00
57885;BME280;43703;51.060;-0.086;2024-02-23T04:31:18;97105.08;;;5.02;100.00
57885;BME280;43703;51.060;-0.086;2024-02-23T04:33:43;97099.58;;;4.90;100.00
57885;BME280;43703;51.060;-0.086;2024-02-23T04:36:09;97102.35;;;5.00;100.00
57885;BME280;43703;51.060;-0.086;2024-02-23T04:38:34;97099.40;;;4.89;100.00
57885;BME280;43703;51.060;-0.086;2024-02-23T04:41:02;97100.77;;;4.68;100.00
57885;BME280;43703;51.060;-0.086;2024-02-23T04:43:24;97100.36;;;4.68;100.00
57885;BME280;43703;51.060;-0.086;2024-02-23T04:45:51;97108.92;;;4.59;100.00
57885;BME280;43703;51.060;-0.086;2024-02-23T04:48:15;97112.63;;;4.70;100.00
57885;BME280;43703;51.060;-0.086;2024-02-23T04:50:39;97120.29;;;4.53;100.00
57885;BME280;43703;51.060;-0.086;2024-02-23T04:53:04;97127.85;;;4.61;100.00
57885;BME280;43703;51.060;-0.086;2024-02-23T04:55:29;97135.44;;;4.42;100.00
57885;BME280;43703;51.060;-0.086;2024-02-23T04:57:54;97146.73;;;4.53;100.00
57885;BME280;43703;51.060;-0.086;2024-02-23T05:00:20;97149.46;;;4.75;100.00
57885;BME280;43703;51.060;-0.086;2024-02-23T05:02:45;97146.93;;;4.34;100.00
57885;BME280;43703;51.060;-0.086;2024-02-23T05:05:10;97149.03;;;4.42;100.00
57885;BME280;43703;51.060;-0.086;2024-02-23T05:07:35;97151.54;;;4.56;100.00
57885;BME280;43703;51.060;-0.086;2024-02-23T05:10:00;97154.92;;;4.57;100.00
57885;BME280;43703;51.060;-0.086;2024-02-23T05:12:25;97160.55;;;4.76;100.00
57885;BME280;43703;51.060;-0.086;2024-02-23T05:14:50;97164.34;;;4.75;100.00
57885;BME280;43703;51.060;-0.086;2024-02-23T05:17:15;97165.71;;;4.68;100.00
57885;BME280;43703;51.060;-0.086;2024-02-23T05:19:41;97167.04;;;5.04;100.00
57885;BME280;43703;51.060;-0.086;2024-02-23T05:22:06;97159.75;;;4.93;100.00
57885;BME280;43703;51.060;-0.086;2024-02-23T05:24:31;97167.38;;;5.03;100.00
57885;BME280;43703;51.060;-0.086;2024-02-23T05:26:56;97165.36;;;5.02;100.00
57885;BME280;43703;51.060;-0.086;2024-02-23T05:29:21;97158.74;;;5.01;100.00
57885;BME280;43703;51.060;-0.086;2024-02-23T05:31:48;97160.67;;;5.02;100.00
57885;BME280;43703;51.060;-0.086;2024-02-23T05:34:11;97160.38;;;4.88;100.00
57885;BME280;43703;51.060;-0.086;2024-02-23T05:36:36;97160.24;;;4.88;100.00
57885;BME280;43703;51.060;-0.086;2024-02-23T05:39:01;97162.01;;;4.68;100.00
57885;BME280;43703;51.060;-0.086;2024-02-23T05:41:28;97157.35;;;4.50;100.00
57885;BME280;43703;51.060;-0.086;2024-02-23T05:43:51;97157.57;;;4.63;100.00
57885;BME280;43703;51.060;-0.086;2024-02-23T05:46:16;97156.30;;;4.52;100.00
57885;BME280;43703;51.060;-0.086;2024-02-23T05:48:41;97162.55;;;4.51;100.00
57885;BME280;43703;51.060;-0.086;2024-02-23T05:51:07;97165.31;;;4.28;100.00
57885;BME280;43703;51.060;-0.086;2024-02-23T05:53:32;97169.33;;;4.23;100.00
57885;BME280;43703;51.060;-0.086;2024-02-23T05:55:57;97179.26;;;4.86;100.00
57885;BME280;43703;51.060;-0.086;2024-02-23T05:58:22;97177.93;;;4.33;100.00
57885;BME280;43703;51.060;-0.086;2024-02-23T06:00:47;97185.91;;;4.68;100.00
57885;BME280;43703;51.060;-0.086;2024-02-23T06:03:12;97191.20;;;4.23;100.00
57885;BME280;43703;51.060;-0.086;2024-02-23T06:05:37;97193.43;;;4.51;100.00
57885;BME280;43703;51.060;-0.086;2024-02-23T06:08:02;97192.21;;;4.32;100.00
57885;BME280;43703;51.060;-0.086;2024-02-23T06:10:27;97190.08;;;4.35;100.00
57885;BME280;43703;51.060;-0.086;2024-02-23T06:12:52;97185.33;;;4.80;100.00
57885;BME280;43703;51.060;-0.086;2024-02-23T06:15:17;97188.75;;;4.13;100.00
57885;BME280;43703;51.060;-0.086;2024-02-23T06:17:42;97191.36;;;4.48;100.00
57885;BME280;43703;51.060;-0.086;2024-02-23T06:20:08;97191.68;;;4.45;100.00
57885;BME280;43703;51.060;-0.086;2024-02-23T06:22:32;97181.89;;;4.49;100.00
57885;BME280;43703;51.060;-0.086;2024-02-23T06:24:57;97177.90;;;4.18;100.00
57885;BME280;43703;51.060;-0.086;2024-02-23T06:27:22;97181.66;;;4.17;100.00
57885;BME280;43703;51.060;-0.086;2024-02-23T06:29:48;97189.29;;;4.60;100.00
57885;BME280;43703;51.060;-0.086;2024-02-23T06:32:12;97194.29;;;4.45;100.00
57885;BME280;43703;51.060;-0.086;2024-02-23T06:34:37;97197.93;;;4.43;100.00
57885;BME280;43703;51.060;-0.086;2024-02-23T06:37:03;97209.39;;;3.95;100.00
57885;BME280;43703;51.060;-0.086;2024-02-23T06:39:27;97217.49;;;4.43;100.00
57885;BME280;43703;51.060;-0.086;2024-02-23T06:41:52;97224.19;;;4.09;100.00
57885;BME280;43703;51.060;-0.086;2024-02-23T06:44:17;97221.14;;;4.67;100.00
57885;BME280;43703;51.060;-0.086;2024-02-23T06:46:43;97221.24;;;4.37;100.00
57885;BME280;43703;51.060;-0.086;2024-02-23T06:49:08;97221.33;;;4.27;100.00
57885;BME280;43703;51.060;-0.086;2024-02-23T06:51:33;97218.55;;;4.38;100.00
57885;BME280;43703;51.060;-0.086;2024-02-23T06:53:59;97217.69;;;4.04;100.00
57885;BME280;43703;51.060;-0.086;2024-02-23T06:56:24;97218.63;;;4.44;100.00
57885;BME280;43703;51.060;-0.086;2024-02-23T06:58:49;97223.74;;;4.15;100.00
57885;BME280;43703;51.060;-0.086;2024-02-23T07:01:14;97227.51;;;3.96;100.00
57885;BME280;43703;51.060;-0.086;2024-02-23T07:03:40;97224.23;;;4.16;100.00
57885;BME280;43703;51.060;-0.086;2024-02-23T07:06:05;97232.81;;;4.10;100.00
57885;BME280;43703;51.060;-0.086;2024-02-23T07:08:30;97235.48;;;4.35;100.00
57885;BME280;43703;51.060;-0.086;2024-02-23T07:10:57;97242.29;;;4.16;100.00
57885;BME280;43703;51.060;-0.086;2024-02-23T07:13:20;97249.44;;;4.38;100.00
57885;BME280;43703;51.060;-0.086;2024-02-23T07:15:45;97253.08;;;4.43;100.00
57885;BME280;43703;51.060;-0.086;2024-02-23T07:18:10;97252.76;;;4.44;100.00
57885;BME280;43703;51.060;-0.086;2024-02-23T07:20:35;97253.25;;;4.53;100.00
57885;BME280;43703;51.060;-0.086;2024-02-23T07:23:00;97258.14;;;4.56;100.00
57885;BME280;43703;51.060;-0.086;2024-02-23T07:25:25;97256.97;;;4.64;100.00
57885;BME280;43703;51.060;-0.086;2024-02-23T07:27:50;97257.09;;;4.61;100.00
57885;BME280;43703;51.060;-0.086;2024-02-23T07:30:15;97257.24;;;4.72;100.00
57885;BME280;43703;51.060;-0.086;2024-02-23T07:32:40;97259.66;;;4.70;100.00
57885;BME280;43703;51.060;-0.086;2024-02-23T07:35:06;97262.02;;;5.21;100.00
57885;BME280;43703;51.060;-0.086;2024-02-23T07:37:30;97265.15;;;4.84;100.00
57885;BME280;43703;51.060;-0.086;2024-02-23T07:39:55;97267.79;;;5.52;100.00
57885;BME280;43703;51.060;-0.086;2024-02-23T07:42:20;97268.34;;;5.59;100.00
57885;BME280;43703;51.060;-0.086;2024-02-23T07:44:45;97272.47;;;5.65;100.00
57885;BME280;43703;51.060;-0.086;2024-02-23T07:47:11;97271.73;;;5.67;100.00
57885;BME280;43703;51.060;-0.086;2024-02-23T07:49:35;97270.56;;;5.48;100.00
57885;BME280;43703;51.060;-0.086;2024-02-23T07:52:00;97266.87;;;5.46;100.00
57885;BME280;43703;51.060;-0.086;2024-02-23T07:54:26;97267.31;;;5.76;100.00
57885;BME280;43703;51.060;-0.086;2024-02-23T07:56:50;97274.19;;;5.44;100.00
57885;BME280;43703;51.060;-0.086;2024-02-23T07:59:16;97273.35;;;5.22;99.29
57885;BME280;43703;51.060;-0.086;2024-02-23T08:01:41;97269.97;;;5.07;100.00
57885;BME280;43703;51.060;-0.086;2024-02-23T08:04:06;97273.33;;;5.41;100.00
57885;BME280;43703;51.060;-0.086;2024-02-23T08:06:31;97280.05;;;5.43;100.00
57885;BME280;43703;51.060;-0.086;2024-02-23T08:08:56;97279.32;;;5.31;100.00
57885;BME280;43703;51.060;-0.086;2024-02-23T08:11:21;97282.73;;;5.54;100.00
57885;BME280;43703;51.060;-0.086;2024-02-23T08:13:46;97281.92;;;5.70;100.00
57885;BME280;43703;51.060;-0.086;2024-02-23T08:16:11;97283.40;;;5.86;100.00
57885;BME280;43703;51.060;-0.086;2024-02-23T08:18:36;97283.57;;;5.54;100.00
57885;BME280;43703;51.060;-0.086;2024-02-23T08:21:01;97280.49;;;5.55;100.00
57885;BME280;43703;51.060;-0.086;2024-02-23T08:23:26;97286.14;;;5.70;100.00
57885;BME280;43703;51.060;-0.086;2024-02-23T08:25:51;97291.36;;;5.52;100.00
57885;BME280;43703;51.060;-0.086;2024-02-23T08:28:16;97292.57;;;5.93;100.00
57885;BME280;43703;51.060;-0.086;2024-02-23T08:30:41;97293.86;;;5.77;100.00
57885;BME280;43703;51.060;-0.086;2024-02-23T08:33:06;97288.55;;;5.90;99.09
57885;BME280;43703;51.060;-0.086;2024-02-23T08:35:31;97293.25;;;5.90;100.00
57885;BME280;43703;51.060;-0.086;2024-02-23T08:37:56;97296.90;;;6.39;100.00
57885;BME280;43703;51.060;-0.086;2024-02-23T08:40:21;97296.44;;;5.88;100.00
57885;BME280;43703;51.060;-0.086;2024-02-23T08:42:46;97296.76;;;6.29;100.00
57885;BME280;43703;51.060;-0.086;2024-02-23T08:45:11;97291.31;;;6.70;100.00
57885;BME280;43703;51.060;-0.086;2024-02-23T08:47:36;97295.63;;;6.68;100.00
57885;BME280;43703;51.060;-0.086;2024-02-23T08:50:05;97293.73;;;7.13;99.50
57885;BME280;43703;51.060;-0.086;2024-02-23T08:52:26;97295.08;;;7.29;100.00
57885;BME280;43703;51.060;-0.086;2024-02-23T08:54:52;97290.62;;;7.42;97.09
57885;BME280;43703;51.060;-0.086;2024-02-23T08:57:17;97287.17;;;7.66;100.00
57885;BME280;43703;51.060;-0.086;2024-02-23T08:59:43;97287.82;;;7.94;100.00
57885;BME280;43703;51.060;-0.086;2024-02-23T09:02:08;97290.23;;;8.87;100.00
57885;BME280;43703;51.060;-0.086;2024-02-23T09:04:34;97285.71;;;9.43;100.00
57885;BME280;43703;51.060;-0.086;2024-02-23T09:06:59;97289.00;;;10.14;100.00
57885;BME280;43703;51.060;-0.086;2024-02-23T09:09:25;97281.38;;;10.22;95.60
57885;BME280;43703;51.060;-0.086;2024-02-23T09:11:50;97286.31;;;10.63;100.00
57885;BME280;43703;51.060;-0.086;2024-02-23T09:14:17;97288.02;;;10.42;97.41
57885;BME280;43703;51.060;-0.086;2024-02-23T09:16:42;97296.93;;;11.05;100.00
57885;BME280;43703;51.060;-0.086;2024-02-23T09:19:08;97307.23;;;11.13;100.00
57885;BME280;43703;51.060;-0.086;2024-02-23T09:21:34;97320.43;;;12.61;100.00
57885;BME280;43703;51.060;-0.086;2024-02-23T09:23:59;97309.76;;;12.96;100.00
57885;BME280;43703;51.060;-0.086;2024-02-23T09:26:25;97313.58;;;12.75;100.00
57885;BME280;43703;51.060;-0.086;2024-02-23T09:28:51;97318.06;;;13.30;100.00
57885;BME280;43703;51.060;-0.086;2024-02-23T09:31:16;97323.62;;;14.02;100.00
57885;BME280;43703;51.060;-0.086;2024-02-23T09:33:42;97321.03;;;13.72;100.00
57885;BME280;43703;51.060;-0.086;2024-02-23T09:36:08;97320.17;;;13.63;89.01
57885;BME280;43703;51.060;-0.086;2024-02-23T09:38:34;97322.13;;;13.07;98.78
57885;BME280;43703;51.060;-0.086;2024-02-23T09:41:00;97321.19;;;12.50;78.86
57885;BME280;43703;51.060;-0.086;2024-02-23T09:43:28;97323.04;;;12.70;94.89
57885;BME280;43703;51.060;-0.086;2024-02-23T09:45:52;97323.72;;;12.40;80.92
57885;BME280;43703;51.060;-0.086;2024-02-23T09:48:19;97325.17;;;13.43;100.00
57885;BME280;43703;51.060;-0.086;2024-02-23T09:50:44;97323.13;;;12.57;72.07
57885;BME280;43703;51.060;-0.086;2024-02-23T09:53:10;97327.30;;;12.34;87.47
57885;BME280;43703;51.060;-0.086;2024-02-23T09:55:35;97322.63;;;12.26;89.75
57885;BME280;43703;51.060;-0.086;2024-02-23T09:58:01;97324.30;;;12.74;86.90
57885;BME280;43703;51.060;-0.086;2024-02-23T10:00:27;97322.40;;;12.94;74.06
57885;BME280;43703;51.060;-0.086;2024-02-23T10:02:53;97324.22;;;12.30;71.85
57885;BME280;43703;51.060;-0.086;2024-02-23T10:05:18;97323.71;;;11.33;67.03
57885;BME280;43703;51.060;-0.086;2024-02-23T10:07:43;97323.81;;;10.83;68.26
57885;BME280;43703;51.060;-0.086;2024-02-23T10:10:10;97321.58;;;10.63;76.73
57885;BME280;43703;51.060;-0.086;2024-02-23T10:12:35;97322.46;;;10.70;78.00
57885;BME280;43703;51.060;-0.086;2024-02-23T10:15:02;97325.48;;;10.52;84.32
57885;BME280;43703;51.060;-0.086;2024-02-23T10:17:27;97330.88;;;11.02;100.00
57885;BME280;43703;51.060;-0.086;2024-02-23T10:19:52;97330.06;;;10.95;90.40
57885;BME280;43703;51.060;-0.086;2024-02-23T10:22:18;97329.66;;;11.11;85.26
57885;BME280;43703;51.060;-0.086;2024-02-23T10:24:44;97333.34;;;10.72;74.66
57885;BME280;43703;51.060;-0.086;2024-02-23T10:27:10;97333.89;;;10.40;74.29
57885;BME280;43703;51.060;-0.086;2024-02-23T10:29:36;97337.59;;;10.05;85.93
57885;BME280;43703;51.060;-0.086;2024-02-23T10:32:01;97339.83;;;10.49;92.54
57885;BME280;43703;51.060;-0.086;2024-02-23T10:34:27;97340.38;;;10.49;79.14
57885;BME280;43703;51.060;-0.086;2024-02-23T10:36:54;97337.80;;;10.04;80.70
57885;BME280;43703;51.060;-0.086;2024-02-23T10:39:19;97338.98;;;9.80;86.98
57885;BME280;43703;51.060;-0.086;2024-02-23T10:41:56;97342.27;;;9.88;76.30
57885;BME280;43703;51.060;-0.086;2024-02-23T10:44:11;97345.46;;;9.58;75.80
57885;BME280;43703;51.060;-0.086;2024-02-23T10:46:37;97347.08;;;9.56;77.39
57885;BME280;43703;51.060;-0.086;2024-02-23T10:49:03;97349.88;;;9.06;81.66
57885;BME280;43703;51.060;-0.086;2024-02-23T10:51:28;97348.95;;;9.04;82.54
57885;BME280;43703;51.060;-0.086;2024-02-23T10:53:53;97351.78;;;8.97;80.95
57885;BME280;43703;51.060;-0.086;2024-02-23T10:56:20;97355.38;;;9.08;82.90
57885;BME280;43703;51.060;-0.086;2024-02-23T10:58:45;97361.91;;;8.80;85.90
57885;BME280;43703;51.060;-0.086;2024-02-23T11:01:12;97360.72;;;8.96;83.22
57885;BME280;43703;51.060;-0.086;2024-02-23T11:03:37;97357.20;;;9.74;94.42
57885;BME280;43703;51.060;-0.086;2024-02-23T11:06:05;97354.76;;;9.82;88.63
57885;BME280;43703;51.060;-0.086;2024-02-23T11:08:28;97356.15;;;9.84;85.38
57885;BME280;43703;51.060;-0.086;2024-02-23T11:10:54;97356.87;;;10.24;86.90
57885;BME280;43703;51.060;-0.086;2024-02-23T11:13:30;97355.61;;;10.17;75.56
57885;BME280;43703;51.060;-0.086;2024-02-23T11:15:46;97353.48;;;10.35;92.97
57885;BME280;43703;51.060;-0.086;2024-02-23T11:20:40;97356.99;;;10.18;78.11
57885;BME280;43703;51.060;-0.086;2024-02-23T11:25:29;97354.46;;;10.39;98.49
57885;BME280;43703;51.060;-0.086;2024-02-23T11:27:57;97355.49;;;10.45;87.39
57885;BME280;43703;51.060;-0.086;2024-02-23T11:30:21;97350.50;;;10.68;84.68
57885;BME280;43703;51.060;-0.086;2024-02-23T11:32:48;97353.65;;;10.61;83.67
57885;BME280;43703;51.060;-0.086;2024-02-23T11:35:14;97351.44;;;10.74;84.20
57885;BME280;43703;51.060;-0.086;2024-02-23T11:37:46;97348.10;;;10.35;82.79
57885;BME280;43703;51.060;-0.086;2024-02-23T11:40:05;97344.86;;;10.27;84.12
57885;BME280;43703;51.060;-0.086;2024-02-23T11:42:30;97343.93;;;10.74;94.57
57885;BME280;43703;51.060;-0.086;2024-02-23T11:44:56;97346.08;;;10.88;87.60
57885;BME280;43703;51.060;-0.086;2024-02-23T11:47:22;97347.12;;;10.63;92.97
57885;BME280;43703;51.060;-0.086;2024-02-23T11:49:47;97344.66;;;10.76;77.52
57885;BME280;43703;51.060;-0.086;2024-02-23T11:52:13;97345.87;;;10.58;85.82
57885;BME280;43703;51.060;-0.086;2024-02-23T11:54:39;97346.99;;;10.71;91.10
57885;BME280;43703;51.060;-0.086;2024-02-23T11:57:05;97348.66;;;10.59;92.69
57885;BME280;43703;51.060;-0.086;2024-02-23T11:59:30;97348.60;;;10.47;78.32
57885;BME280;43703;51.060;-0.086;2024-02-23T12:01:57;97350.35;;;10.17;74.94
57885;BME280;43703;51.060;-0.086;2024-02-23T12:04:22;97351.43;;;10.01;85.67
57885;BME280;43703;51.060;-0.086;2024-02-23T12:06:48;97352.64;;;10.37;88.99
57885;BME280;43703;51.060;-0.086;2024-02-23T12:09:14;97349.31;;;10.36;76.44
57885;BME280;43703;51.060;-0.086;2024-02-23T12:11:40;97348.90;;;9.83;79.13
57885;BME280;43703;51.060;-0.086;2024-02-23T12:14:05;97348.87;;;10.01;80.14
57885;BME280;43703;51.060;-0.086;2024-02-23T12:16:33;97348.57;;;10.14;79.75
57885;BME280;43703;51.060;-0.086;2024-02-23T12:18:57;97355.78;;;10.05;82.75
57885;BME280;43703;51.060;-0.086;2024-02-23T12:21:24;97354.24;;;9.93;93.80
57885;BME280;43703;51.060;-0.086;2024-02-23T12:23:49;97349.85;;;9.38;85.18
57885;BME280;43703;51.060;-0.086;2024-02-23T12:26:15;97346.19;;;9.11;86.39
57885;BME280;43703;51.060;-0.086;2024-02-23T12:28:40;97337.58;;;9.27;90.73
57885;BME280;43703;51.060;-0.086;2024-02-23T12:31:06;97339.83;;;8.59;89.08
57885;BME280;43703;51.060;-0.086;2024-02-23T12:33:33;97334.12;;;8.83;92.33
57885;BME280;43703;51.060;-0.086;2024-02-23T12:36:03;97333.03;;;8.83;95.10
57885;BME280;43703;51.060;-0.086;2024-02-23T12:38:23;97333.24;;;8.55;88.05
57885;BME280;43703;51.060;-0.086;2024-02-23T12:40:49;97328.48;;;8.65;95.12
57885;BME280;43703;51.060;-0.086;2024-02-23T12:43:18;97324.89;;;9.04;92.38